Flight Track Log - Related Links

Times and Time Zones

All times are in EST time to prevent confusion due to time zone crossing. See the N288M flight status page for this flight to view local times or setup timezone preferences in your user account.

Time Position Orientation Groundspeed Altitude Reporting Facility
EST Latitude Longitude Course Direction KTS MPH feet Rate Location/Type
Sun 08:03:07 PM 34.2730 -88.8191 203° Southwest  Level FlightAware Approximate
Sun 08:06:00 PM 34.2322 -88.8397 285° West 166 191 2,700  Level Memphis Center
Sun 08:07:00 PM 34.2411 -88.8797 274° West 138 159 3,500 750 Climbing Memphis Center
Sun 08:08:00 PM 34.2436 -88.9200 287° West 124 143 4,200 650 Climbing Memphis Center
Sun 08:09:00 PM 34.2525 -88.9550 270° West 118 136 4,800 600 Climbing Memphis Center
Sun 08:10:00 PM 34.2528 -88.9953 264° West 118 136 5,400 600 Climbing Memphis Center
Sun 08:11:00 PM 34.2492 -89.0356 264° West 123 142 6,000 400 Climbing Memphis Center
Sun 08:12:00 PM 34.2453 -89.0781 273° West 123 142 6,200  Climbing Memphis Center
Sun 08:13:00 PM 34.2481 -89.1333 273° West 149 171 6,000 -100 Descending Memphis Center
Sun 08:14:00 PM 34.2506 -89.1886 278° West 166 191 6,000  Level Memphis Center
Sun 08:15:00 PM 34.2575 -89.2489 270° West 166 191 6,000 50 Level Memphis Center
Sun 08:16:00 PM 34.2578 -89.3017 276° West 160 184 6,100  Climbing Memphis Center
Sun 08:17:00 PM 34.2625 -89.3569 278° West 160 184 6,000 -50 Descending Memphis Center
Sun 08:18:00 PM 34.2692 -89.4122 273° West 160 184 6,000  Level Memphis Center
Sun 08:19:00 PM 34.2717 -89.4675 276° West 160 184 6,000  Level Memphis Center
Sun 08:20:00 PM 34.2764 -89.5200 273° West 160 184 6,000 -50 Level Memphis Center
Sun 08:21:00 PM 34.2786 -89.5781 271° West 160 184 5,900  Descending Memphis Center
Sun 08:22:00 PM 34.2792 -89.6333 270° West 160 184 6,000 50 Climbing Memphis Center
Sun 08:23:00 PM 34.2794 -89.6836 278° West 160 184 6,000  Level Memphis Center
Sun 08:24:00 PM 34.2858 -89.7386 275° West 160 184 6,000  Level Memphis Center
Sun 08:25:00 PM 34.2903 -89.7967 278° West 165 190 6,000 50 Level Memphis Center
Sun 08:26:00 PM 34.2969 -89.8544 273° West 165 190 6,100  Climbing Memphis Center
Sun 08:27:00 PM 34.2992 -89.9097 275° West 171 197 6,000  Descending Memphis Center
Sun 08:28:00 PM 34.3036 -89.9700 270° West 171 197 6,100  Climbing Memphis Center
Sun 08:29:00 PM 34.3036 -90.0253 270° West 166 191 6,000  Descending Memphis Center
Sun 08:30:00 PM 34.3039 -90.0806 287° West 166 191 6,100 50 Climbing Memphis Center
Sun 08:31:00 PM 34.3164 -90.1308 286° West 160 184 6,100  Level Memphis Center
Sun 08:32:00 PM 34.3292 -90.1861 287° West 166 191 6,100 -50 Level Memphis Center
Sun 08:33:00 PM 34.3417 -90.2364 281° West 166 191 6,000  Descending Memphis Center
Sun 08:34:00 PM 34.3500 -90.2892 284° West 166 191 6,100 50 Climbing Memphis Center
Sun 08:35:00 PM 34.3606 -90.3419 281° West 166 191 6,100 -50 Level Memphis Center
Sun 08:36:00 PM 34.3689 -90.3950 278° West 161 185 6,000 -50 Descending Memphis Center
Sun 08:37:00 PM 34.3750 -90.4453 270° West 161 185 6,000 50 Level Memphis Center
Sun 08:38:00 PM 34.3750 -90.4981 275° West 161 185 6,100 50 Climbing Memphis Center
Sun 08:39:00 PM 34.3792 -90.5508 273° West 161 185 6,100 50 Level Memphis Center
Sun 08:40:00 PM 34.3811 -90.6014 278° West 161 185 6,200  Climbing Memphis Center
Sun 08:41:00 PM 34.3872 -90.6567 281° West 161 185 6,100 -50 Descending Memphis Center
Sun 08:42:00 PM 34.3956 -90.7094 284° West 161 185 6,100 -50 Level Memphis Center
Sun 08:43:00 PM 34.4078 -90.7675 278° West 161 185 6,000  Descending Memphis Center
Sun 08:44:00 PM 34.4139 -90.8203 278° West 161 185 6,100 50 Climbing Memphis Center
Sun 08:45:00 PM 34.4200 -90.8758 281° West 161 185 6,100  Level Memphis Center
Sun 08:46:00 PM 34.4281 -90.9261 278° West 161 185 6,100 50 Level Memphis Center
Sun 08:47:00 PM 34.4342 -90.9767 270° West 161 185 6,200 -50 Climbing Memphis Center
Sun 08:48:00 PM 34.4339 -91.0294 270° West 156 180 6,000 -150 Descending Memphis Center
Sun 08:49:00 PM 34.4336 -91.0800 270° West 156 180 5,900 -50 Descending Memphis Center
Sun 08:50:00 PM 34.4333 -91.1278 272° West 156 180 5,900  Level Memphis Center
Sun 08:51:00 PM 34.4350 -91.1781 261° West 156 180 5,900  Level Memphis Center
Sun 08:51:40 PM 34.4306 -91.2133 253° West 147 169 5,900  Level Memphis Center
Sun 08:52:00 PM 34.4286 -91.2208 266° West 156 180 5,900  Level Memphis Center
Sun 08:52:47 PM 34.4261 -91.2686 270° West 148 170 5,900  Level Memphis Center
Sun 08:53:00 PM 34.4261 -91.2736 272° West 156 180 5,900  Level Memphis Center
Sun 08:54:00 PM 34.4278 -91.3242 285° West 156 180 5,900  Level Memphis Center
Sun 08:54:42 PM 34.4358 -91.3619 315° West 158 182 5,900 100 Level Memphis Center
Sun 08:55:00 PM 34.4442 -91.3722 275° West 151 174 6,000  Climbing Memphis Center
Sun 08:55:49 PM 34.4478 -91.4200 270° West 150 173 5,900  Descending Memphis Center
Sun 08:56:00 PM 34.4478 -91.4225 275° West 151 174 6,000  Climbing Memphis Center
Sun 08:56:49 PM 34.4517 -91.4731 334° Northwest 155 178 5,900 -100 Descending Memphis Center
Sun 08:57:00 PM 34.4558 -91.4756 283° West 156 180 5,900 90 Level Memphis Center
Sun 08:57:56 PM 34.4656 -91.5286 317° Northwest 157 181 6,000 100 Climbing Memphis Center
Sun 08:58:00 PM 34.4678 -91.5311 278° West 156 180 6,000  Level Memphis Center
Sun 08:58:57 PM 34.4736 -91.5817 360° North 154 177 6,000  Level Memphis Center
Sun 08:59:00 PM 34.4778 -91.5817 266° West 161 185 6,000  Level Memphis Center
Sun 08:59:57 PM 34.4750 -91.6344 26° Northeast 157 181 6,000  Level Memphis Center
Sun 09:00:00 PM 34.4792 -91.6319 277° West 161 185 6,000  Level Memphis Center
Sun 09:00:58 PM 34.4850 -91.6875 18° North 156 180 6,000  Level Memphis Center
Sun 09:01:00 PM 34.4914 -91.6850 272° West 161 185 6,000 98 Level Memphis Center
Sun 09:01:59 PM 34.4928 -91.7381 18° North 156 180 6,100 100 Climbing Memphis Center
Sun 09:02:00 PM 34.4992 -91.7356 272° West 161 185 6,100  Level Memphis Center
Sun 09:02:59 PM 34.5006 -91.7911 47° Northeast 155 178 6,100  Level Memphis Center
Sun 09:03:00 PM 34.5025 -91.7886 272° West 161 185 6,100 -197 Level Memphis Center
Sun 09:04:00 PM 34.5042 -91.8442 270° West 162 186 5,900 -200 Descending Memphis Center
Sun 09:04:00 PM 34.5042 -91.8467 275° West 161 185 5,900  Level Memphis Center
Sun 09:05:00 PM 34.5075 -91.8972 270° West 160 184 5,900  Level Memphis Center
Sun 09:05:00 PM 34.5075 -91.8997 281° West 161 185 5,900  Level Memphis Center
Sun 09:06:00 PM 34.5153 -91.9503 223° Southwest 161 185 5,900  Level Memphis Center
Sun 09:06:01 PM 34.5131 -91.9528 273° West 159 183 5,900  Level Memphis Center
Sun 09:06:56 PM 34.5147 -91.9981 275° West 158 182 5,900  Level Memphis Center
Sun 09:07:50 PM 34.5181 -92.0486 275° West 159 183 5,900  Level Memphis Center
Sun 09:08:51 PM 34.5217 -92.0989 274° West 156 180 5,900 50 Level Memphis Center
Sun 09:09:51 PM 34.5250 -92.1544 275° West 158 182 6,000 52 Climbing Memphis Center
Sun 09:10:46 PM 34.5286 -92.2025 282° West 161 185 6,000 52 Level Memphis Center
Sun 09:11:47 PM 34.5381 -92.2556 282° West 161 185 6,100 50 Climbing Memphis Center
Sun 09:12:47 PM 34.5478 -92.3114 287° West 162 186 6,100  Level Memphis Center
Sun 09:13:48 PM 34.5614 -92.3672 272° West 162 186 6,100  Level Memphis Center
Sun 09:14:49 PM 34.5628 -92.4200 274° West 158 182 6,100  Level Memphis Center
Sun 09:15:49 PM 34.5658 -92.4756 278° West 159 183 6,100 -50 Level Memphis Center
Sun 09:16:50 PM 34.5714 -92.5264 277° West 161 185 6,000 -77 Descending Memphis Center
Sun 09:18:24 PM 34.5803 -92.6122 279° West 164 189 5,900  Descending Memphis Center
Sun 09:19:24 PM 34.5875 -92.6653 282° West 164 189 6,000 50 Climbing Memphis Center
Sun 09:20:24 PM 34.5969 -92.7186 274° West 164 189 6,000  Level Memphis Center
Sun 09:21:24 PM 34.6000 -92.7742 271° West 164 189 6,000  Level Memphis Center
Sun 09:22:24 PM 34.6011 -92.8297 278° West 164 189 6,000  Level Memphis Center
Sun 09:23:24 PM 34.6064 -92.8753 282° West 158 182 6,000  Level Memphis Center
Sun 09:24:24 PM 34.6158 -92.9311 277° West 164 189 6,000 -50 Level Memphis Center
Sun 09:25:24 PM 34.6208 -92.9842 277° West 164 189 5,900 -50 Descending Memphis Center
Sun 09:26:24 PM 34.6261 -93.0400 273° West 164 189 5,900 50 Level Memphis Center
Sun 09:27:24 PM 34.6289 -93.0956 271° West 164 189 6,000 50 Climbing Memphis Center
Sun 09:28:24 PM 34.6300 -93.1486 277° West 159 183 6,000 50 Level Memphis Center
Sun 09:29:24 PM 34.6350 -93.1992 274° West 159 183 6,100  Climbing Memphis Center
Sun 09:30:24 PM 34.6381 -93.2525 268° West 159 183 6,000 -50 Descending Memphis Center
Sun 09:31:24 PM 34.6367 -93.3078 271° West 159 183 6,000  Level Memphis Center
Sun 09:32:24 PM 34.6375 -93.3608 274° West 159 183 6,000 -50 Level Memphis Center
Sun 09:33:24 PM 34.6403 -93.4114 263° West 159 183 5,900 -50 Descending Memphis Center
Sun 09:34:25 PM 34.6350 -93.4669 274° West 159 183 5,900  Level Memphis Center
Sun 09:35:24 PM 34.6378 -93.5200 273° West 159 183 5,900  Level Memphis Center
Sun 09:36:24 PM 34.6406 -93.5756 271° West 159 183 5,900  Level Memphis Center
Sun 09:37:24 PM 34.6411 -93.6286 268° West 159 183 5,900  Level Memphis Center
Sun 09:38:24 PM 34.6397 -93.6817 277° West 159 183 5,900  Level Memphis Center
Sun 09:39:24 PM 34.6447 -93.7322 273° West 159 183 5,900 -50 Level Memphis Center
Sun 09:40:24 PM 34.6472 -93.7903 271° West 159 183 5,800  Descending Memphis Center
Sun 09:41:24 PM 34.6481 -93.8408 287° West 159 183 5,900 100 Climbing Memphis Center
Sun 09:42:24 PM 34.6611 -93.8944 284° West 159 183 6,000  Climbing Memphis Center
Sun 09:43:24 PM 34.6719 -93.9481 271° West 165 190 5,900 -50 Descending Memphis Center
Sun 09:44:24 PM 34.6725 -93.9986 271° West 160 184 5,900 50 Level Memphis Center
Sun 09:45:24 PM 34.6733 -94.0492 276° West 160 184 6,000 50 Climbing Memphis Center
Sun 09:46:24 PM 34.6778 -94.1047 271° West 160 184 6,000  Level Memphis Center
Sun 09:47:24 PM 34.6783 -94.1603 284° West 160 184 6,000  Level Memphis Center
Sun 09:48:24 PM 34.6892 -94.2114 278° West 160 184 6,000 -50 Level Memphis Center
Sun 09:49:24 PM 34.6958 -94.2672 268° West 160 184 5,900  Descending Memphis Center
Sun 09:50:24 PM 34.6942 -94.3228 277° West 160 184 6,000 50 Climbing Memphis Center
Sun 09:51:24 PM 34.6989 -94.3708 276° West 166 191 6,000 -100 Level Memphis Center
Sun 09:52:24 PM 34.7033 -94.4217 280° West 159 183 5,800  Descending Memphis Center
Sun 09:53:24 PM 34.7103 -94.4675 272° West 154 177 6,000 63 Climbing Memphis Center
Sun 09:55:33 PM 34.7128 -94.5667 268° West 137 158 6,000  Level Fort Worth Center
Sun 09:56:33 PM 34.7117 -94.6097 262° West 137 158 6,000  Level Fort Worth Center
Sun 09:57:33 PM 34.7064 -94.6553 268° West 137 158 6,000 50 Level Fort Worth Center
Sun 09:58:33 PM 34.7053 -94.7008 263° West 142 163 6,100  Climbing Fort Worth Center
Sun 09:59:33 PM 34.7003 -94.7514 265° West 147 169 6,000 -50 Descending Fort Worth Center
Sun 10:00:33 PM 34.6969 -94.8019 266° West 153 176 6,000  Level Fort Worth Center
Sun 10:01:33 PM 34.6939 -94.8578 269° West 159 183 6,000 -50 Level Fort Worth Center
Sun 10:02:33 PM 34.6931 -94.9083 269° West 159 183 5,900 -50 Descending Fort Worth Center
Sun 10:03:33 PM 34.6919 -94.9664 275° West 164 189 5,900  Level Fort Worth Center
Sun 10:04:33 PM 34.6950 -95.0117 271° West 164 189 5,900 50 Level Fort Worth Center
Sun 10:05:33 PM 34.6961 -95.0672 268° West 157 181 6,000 -50 Climbing Fort Worth Center
Sun 10:06:33 PM 34.6947 -95.1153 271° West 157 181 5,800  Descending Fort Worth Center
Sun 10:07:33 PM 34.6958 -95.1683 271° West 157 181 6,000 100 Climbing Fort Worth Center
Sun 10:08:33 PM 34.6967 -95.2214 277° West 157 181 6,000  Level Fort Worth Center
Sun 10:09:33 PM 34.7017 -95.2742 266° West 162 186 6,000  Level Fort Worth Center
Sun 10:10:33 PM 34.6986 -95.3247 277° West 157 181 6,000  Level Fort Worth Center
Sun 10:11:33 PM 34.7036 -95.3753 279° West 157 181 6,000 50 Level Fort Worth Center
Sun 10:12:33 PM 34.7106 -95.4281 277° West 157 181 6,100 50 Climbing Fort Worth Center
Sun 10:13:33 PM 34.7156 -95.4783 279° West 157 181 6,100 -50 Level Fort Worth Center
Sun 10:14:33 PM 34.7228 -95.5339 271° West 164 189 6,000 -50 Descending Fort Worth Center
Sun 10:15:33 PM 34.7233 -95.5769 271° West 153 176 6,000 50 Level Fort Worth Center
Sun 10:16:33 PM 34.7239 -95.6272 277° West 153 176 6,100  Climbing Fort Worth Center
Sun 10:17:33 PM 34.7289 -95.6778 293° West 153 176 6,000 -100 Descending Fort Worth Center
Sun 10:18:33 PM 34.7483 -95.7331 274° West 158 182 5,900 -50 Descending Fort Worth Center
Sun 10:19:33 PM 34.7511 -95.7808 265° West 159 183 5,900 50 Level Fort Worth Center
Sun 10:20:33 PM 34.7475 -95.8317 268° West 159 183 6,000 50 Climbing Fort Worth Center
Sun 10:21:33 PM 34.7461 -95.8847 280° West 154 177 6,000  Level Fort Worth Center
Sun 10:22:33 PM 34.7531 -95.9325 284° West 154 177 6,000  Level Fort Worth Center
Sun 10:23:33 PM 34.7642 -95.9853 268° West 160 184 6,000 -150 Level Fort Worth Center
Sun 10:24:33 PM 34.7625 -96.0411 268° West 160 184 5,700 -400 Descending Fort Worth Center
Sun 10:25:33 PM 34.7611 -96.0867 276° West 160 184 5,200 -500 Descending Fort Worth Center
Sun 10:26:33 PM 34.7658 -96.1447 281° West 165 190 4,700 -500 Descending Fort Worth Center
Sun 10:27:33 PM 34.7747 -96.2028 281° West 170 196 4,200 -450 Descending Fort Worth Center
Sun 10:28:33 PM 34.7836 -96.2606 278° West 175 201 3,800 -400 Descending Fort Worth Center
Sun 10:29:33 PM 34.7903 -96.3211 283° West 180 207 3,400 -300 Descending Fort Worth Center
Sun 10:30:33 PM 34.8014 -96.3792 283° West 180 207 3,200 -200 Descending Fort Worth Center

Login

Don't have an account? Register now (free) for customized features, flight alerts, and more!